Hlavní strana
METAR-TAF:

METAR-TAF

Letiště :

El Bayadh, Alžírsko

zeměpisná šířka: 33-43-15N, zeměpisná délka: 1-05-29E, výška: 1366 m

Aktuální stav počasí

Zpráva byla vytvořena před 27 minutami, v 10:00 UTC
Jihovýchodní vítr 30 kt s nárazy do 40 kt
Teplota 19°C
Vlhkost vzduchu 21%
Tlak 1007 hPa
Viditelnost: 5000 m
nízko zvířený písek

METAR: DAOY 151000Z 13030G40KT 5000 DRSA NSC 19/M04 Q1007

Čas: 11:27 (10:27 UTC)


TAF: chybějící

Stav a předpovědi počasí z více než 4 000 letišť (zprávy METAR a TAF).

Červené a žluté tečky na mapě představují dostupné meteorologické stanice.

Když kurzor umístíte na tečku, zobrazí se název stanice.

Pak kliknutím zobrazíte stav a předpověď počasí.

Chcete-li změnit mapu, kliknutím na zelené tlačítko se znaménkem +mapu přiblížíte, kliknutím na zelené tlačítko se znaménkem – mapu oddálíte a kliknutím na zelené šipky přejdete na sousední mapy.


METAR-TAF: